Time;durP1;ratioP1;P1;durP2;ratioP2;P2;SDS_P1;SDS_P2;PMS_P1;PMS_P2;Temp;Humidity;BMP_temperature;BMP_pressure;BME280_temperature;BME280_humidity;BME280_pressure;Samples;Min_cycle;Max_cycle;Signal;HPM_P1;HPM_P2
2022/03/04 00:01:59;;;;;;;20.70;10.10;;;1.90;61.90;;;;;;5007374;28;20583;-74
2022/03/04 00:04:26;;;;;;;21.20;10.45;;;1.90;62.10;;;;;;5003928;28;20063;-74
2022/03/04 00:06:54;;;;;;;18.00;9.13;;;1.90;62.30;;;;;;5010874;28;20149;-71
2022/03/04 00:09:20;;;;;;;23.08;10.13;;;1.90;62.40;;;;;;5010500;28;20060;-71
2022/03/04 00:11:48;;;;;;;23.92;11.00;;;2.00;62.50;;;;;;5011204;28;20028;-75
2022/03/04 00:14:14;;;;;;;21.90;10.63;;;2.00;62.70;;;;;;5011696;28;20026;-71
2022/03/04 00:16:40;;;;;;;23.00;11.33;;;2.00;62.90;;;;;;5007827;28;20018;-76
2022/03/04 00:19:07;;;;;;;19.63;10.13;;;1.90;62.90;;;;;;5011653;28;20026;-70
2022/03/04 00:21:41;;;;;;;;;;;1.90;63.10;;;;;;5012271;28;20021;-72
2022/03/04 00:24:08;;;;;;;18.80;9.93;;;1.90;63.10;;;;;;5008231;28;19909;-71
2022/03/04 00:26:35;;;;;;;20.85;9.57;;;1.90;63.30;;;;;;5011799;28;20098;-72
2022/03/04 00:29:01;;;;;;;21.42;11.00;;;1.90;63.10;;;;;;5007584;28;20030;-71
2022/03/04 00:31:26;;;;;;;20.37;9.97;;;1.90;63.40;;;;;;5005820;28;20037;-70
2022/03/04 00:33:52;;;;;;;16.90;9.40;;;1.90;63.30;;;;;;4995054;28;20479;-70
2022/03/04 00:36:22;;;;;;;20.83;10.20;;;1.90;63.30;;;;;;5015515;28;20025;-70
2022/03/04 00:38:51;;;;;;;18.27;9.68;;;1.80;63.40;;;;;;4995310;28;20028;-70
2022/03/04 00:41:18;;;;;;;17.42;9.35;;;1.80;63.30;;;;;;5011463;28;20075;-71
2022/03/04 00:43:44;;;;;;;;;;;1.80;63.10;;;;;;4983651;28;20360;-71
2022/03/04 00:46:11;;;;;;;18.75;9.07;;;1.80;63.10;;;;;;5014491;28;19916;-70
2022/03/04 00:48:37;;;;;;;;;;;1.70;63.20;;;;;;5005561;28;20455;-70
2022/03/04 00:51:03;;;;;;;18.48;8.85;;;1.70;63.20;;;;;;5010883;28;20020;-71
2022/03/04 00:53:30;;;;;;;21.93;10.50;;;1.70;63.20;;;;;;5005360;28;20060;-71
2022/03/04 00:55:59;;;;;;;18.30;9.65;;;1.70;63.30;;;;;;5013254;28;20766;-71
2022/03/04 00:58:24;;;;;;;18.92;8.93;;;1.60;63.10;;;;;;5005984;28;20042;-71
2022/03/04 01:00:50;;;;;;;18.43;9.30;;;1.60;63.10;;;;;;5009865;28;20037;-71
2022/03/04 01:03:16;;;;;;;24.60;9.73;;;1.60;63.10;;;;;;5013285;28;20033;-71
2022/03/04 01:05:42;;;;;;;19.43;9.57;;;1.60;63.10;;;;;;5006959;28;21114;-70
2022/03/04 01:08:08;;;;;;;18.15;8.93;;;1.60;63.20;;;;;;5011657;28;20029;-70
2022/03/04 01:10:35;;;;;;;18.60;9.17;;;1.60;63.30;;;;;;5010427;28;20026;-70
2022/03/04 01:13:01;;;;;;;17.92;8.93;;;1.60;63.30;;;;;;5012378;28;20370;-71
2022/03/04 01:15:27;;;;;;;20.47;9.07;;;1.60;63.30;;;;;;4988577;28;20029;-71
2022/03/04 01:17:53;;;;;;;22.90;9.73;;;1.60;63.60;;;;;;5012188;28;20021;-70
2022/03/04 01:20:20;;;;;;;17.83;9.27;;;1.60;63.50;;;;;;5006220;28;20021;-70
2022/03/04 01:22:45;;;;;;;17.02;8.52;;;1.60;63.20;;;;;;5005860;28;20029;-71
2022/03/04 01:25:11;;;;;;;19.37;9.40;;;1.60;63.20;;;;;;5013957;28;20597;-70
2022/03/04 01:27:38;;;;;;;18.83;8.83;;;1.60;63.30;;;;;;5001492;28;20033;-70
2022/03/04 01:30:06;;;;;;;18.17;9.00;;;1.50;63.30;;;;;;5014300;28;20032;-70
2022/03/04 01:32:32;;;;;;;21.20;10.00;;;1.50;64.10;;;;;;4999926;28;20061;-71
2022/03/04 01:34:58;;;;;;;20.77;9.90;;;1.50;63.50;;;;;;5010108;28;20131;-70
2022/03/04 01:37:24;;;;;;;20.97;10.23;;;1.50;63.40;;;;;;5004191;28;20029;-71
2022/03/04 01:39:50;;;;;;;19.97;9.77;;;1.50;63.40;;;;;;5012795;28;20022;-70
2022/03/04 01:42:16;;;;;;;23.13;10.83;;;1.50;63.30;;;;;;5013155;28;20037;-70
2022/03/04 01:44:41;;;;;;;22.03;10.83;;;1.50;63.30;;;;;;5004873;28;20617;-70
2022/03/04 01:47:07;;;;;;;18.60;9.60;;;1.50;63.40;;;;;;4996934;28;20496;-70
2022/03/04 01:49:33;;;;;;;22.70;10.67;;;1.50;63.30;;;;;;4993393;28;20048;-70
2022/03/04 01:52:00;;;;;;;19.55;10.25;;;1.40;63.40;;;;;;4995179;28;21434;-70
2022/03/04 01:54:26;;;;;;;20.02;10.88;;;1.40;63.60;;;;;;5005830;28;20033;-72
2022/03/04 01:56:53;;;;;;;21.57;10.13;;;1.40;63.70;;;;;;5008844;28;20025;-70
2022/03/04 01:59:18;;;;;;;21.60;10.30;;;1.30;64.00;;;;;;5004867;28;20030;-70
2022/03/04 02:01:44;;;;;;;24.70;9.90;;;1.30;64.30;;;;;;5004136;28;20034;-71
2022/03/04 02:04:10;;;;;;;21.77;10.00;;;1.30;64.40;;;;;;5009900;28;20030;-71
2022/03/04 02:06:37;;;;;;;22.80;12.10;;;1.30;64.60;;;;;;5005192;28;20040;-70
2022/03/04 02:09:03;;;;;;;21.40;10.88;;;1.30;65.40;;;;;;5012802;28;20013;-70
2022/03/04 02:11:29;;;;;;;24.63;10.93;;;1.20;64.80;;;;;;5004694;28;20073;-71
2022/03/04 02:13:55;;;;;;;21.40;10.90;;;1.30;65.10;;;;;;5009349;28;20667;-70
2022/03/04 02:16:24;;;;;;;21.07;10.43;;;1.30;65.10;;;;;;4996209;28;20049;-70
2022/03/04 02:18:51;;;;;;;22.95;11.50;;;1.30;65.30;;;;;;5012995;28;20018;-70
2022/03/04 02:21:20;;;;;;;21.70;11.30;;;1.30;65.30;;;;;;5016046;28;20659;-70
2022/03/04 02:23:47;;;;;;;21.13;11.05;;;1.30;65.40;;;;;;5009799;28;20037;-70
2022/03/04 02:26:12;;;;;;;19.77;11.05;;;1.20;65.60;;;;;;5016557;28;20033;-70
2022/03/04 02:28:38;;;;;;;23.13;11.10;;;1.20;65.80;;;;;;5008106;28;20040;-70
2022/03/04 02:31:04;;;;;;;21.47;10.83;;;1.20;66.20;;;;;;5014048;28;20030;-70
2022/03/04 02:33:30;;;;;;;26.07;11.57;;;1.10;66.50;;;;;;5007282;28;20037;-70
2022/03/04 02:35:56;;;;;;;23.08;12.18;;;1.10;66.60;;;;;;5012055;28;20031;-71
2022/03/04 02:38:22;;;;;;;22.57;11.43;;;1.10;66.80;;;;;;5004081;28;20029;-71
2022/03/04 02:40:49;;;;;;;29.13;11.40;;;1.00;67.00;;;;;;4987986;28;20080;-71
2022/03/04 02:43:14;;;;;;;;;;;1.00;67.40;;;;;;5013715;28;20545;-76
2022/03/04 02:45:40;;;;;;;25.08;11.93;;;1.00;67.40;;;;;;5011744;28;19960;-72
2022/03/04 02:48:06;;;;;;;26.47;12.13;;;1.00;67.70;;;;;;5008770;28;20017;-71
2022/03/04 02:50:32;;;;;;;26.57;12.50;;;1.00;67.70;;;;;;5004762;28;20028;-70
2022/03/04 02:52:57;;;;;;;21.60;11.53;;;1.00;68.10;;;;;;5005897;28;20034;-70
2022/03/04 02:55:23;;;;;;;26.13;12.37;;;1.00;68.30;;;;;;5011833;28;20030;-70
2022/03/04 02:57:49;;;;;;;24.90;12.43;;;0.90;68.30;;;;;;5009440;28;20022;-70
2022/03/04 03:00:16;;;;;;;22.97;12.53;;;0.90;68.50;;;;;;5013776;28;20017;-70
2022/03/04 03:02:42;;;;;;;;;;;0.90;68.60;;;;;;5012457;28;20023;-71
2022/03/04 03:05:09;;;;;;;24.75;12.10;;;0.90;68.60;;;;;;4991798;28;19909;-70
2022/03/04 03:07:35;;;;;;;25.08;11.75;;;0.90;68.60;;;;;;5003178;28;20021;-71
2022/03/04 03:10:00;;;;;;;26.87;13.03;;;0.90;68.90;;;;;;5005812;28;20078;-70
2022/03/04 03:12:26;;;;;;;24.80;12.17;;;0.90;69.10;;;;;;4993025;28;20088;-71
2022/03/04 03:14:52;;;;;;;27.17;12.83;;;0.80;69.20;;;;;;5013545;28;20026;-70
2022/03/04 03:17:18;;;;;;;26.80;12.80;;;0.80;69.50;;;;;;4996128;28;20041;-71
2022/03/04 03:19:43;;;;;;;28.97;12.73;;;0.80;70.40;;;;;;5005339;28;20032;-71
2022/03/04 03:22:09;;;;;;;26.60;13.17;;;0.80;70.00;;;;;;5015873;28;20033;-70
2022/03/04 03:24:35;;;;;;;29.40;13.97;;;0.80;70.00;;;;;;5006552;28;20033;-71
2022/03/04 03:27:01;;;;;;;28.10;13.17;;;0.80;71.40;;;;;;5010169;28;20029;-70
2022/03/04 03:29:26;;;;;;;26.67;12.63;;;0.80;71.80;;;;;;5005619;28;20042;-71
2022/03/04 03:31:52;;;;;;;24.80;13.47;;;0.80;71.70;;;;;;5006825;28;20036;-70
2022/03/04 03:34:18;;;;;;;27.52;14.43;;;0.80;72.00;;;;;;4986064;28;20029;-70
2022/03/04 03:36:44;;;;;;;30.70;15.67;;;0.80;73.00;;;;;;5010377;28;20454;-70
2022/03/04 03:39:09;;;;;;;38.23;17.73;;;0.70;74.30;;;;;;5012635;28;20021;-70
2022/03/04 03:41:36;;;;;;;38.50;19.10;;;0.70;77.50;;;;;;5011944;28;20108;-71
2022/03/04 03:44:02;;;;;;;33.47;17.23;;;0.70;81.80;;;;;;5008236;28;20049;-69
2022/03/04 03:46:29;;;;;;;38.60;17.67;;;0.60;83.20;;;;;;5008729;28;20517;-71
2022/03/04 03:48:54;;;;;;;36.75;17.08;;;0.60;83.70;;;;;;5012675;28;20083;-70
2022/03/04 03:51:20;;;;;;;38.23;18.47;;;0.60;83.70;;;;;;5013441;28;20034;-70
2022/03/04 03:53:46;;;;;;;36.77;16.03;;;0.60;83.20;;;;;;5008245;28;20025;-70
2022/03/04 03:56:11;;;;;;;34.87;16.37;;;0.60;82.70;;;;;;4991668;28;20026;-70
2022/03/04 03:58:37;;;;;;;36.23;17.50;;;0.60;82.40;;;;;;5008067;28;20021;-70
2022/03/04 04:01:03;;;;;;;38.83;17.27;;;0.60;82.50;;;;;;5008928;28;20010;-70
2022/03/04 04:03:30;;;;;;;37.78;17.60;;;0.60;83.40;;;;;;5006567;28;20053;-70
2022/03/04 04:05:56;;;;;;;40.10;18.42;;;0.60;83.70;;;;;;5007820;28;20033;-70
2022/03/04 04:08:22;;;;;;;41.37;18.10;;;0.50;84.20;;;;;;5017350;28;20485;-70
2022/03/04 04:10:47;;;;;;;43.83;18.53;;;0.50;85.20;;;;;;5011718;28;20033;-70
2022/03/04 04:13:14;;;;;;;43.97;20.07;;;0.40;86.80;;;;;;5014567;28;20553;-70
2022/03/04 04:15:40;;;;;;;41.83;19.55;;;0.50;87.20;;;;;;5005988;28;20486;-70
2022/03/04 04:18:05;;;;;;;40.47;17.90;;;0.50;87.20;;;;;;5012891;28;20037;-70
2022/03/04 04:20:31;;;;;;;42.37;16.53;;;0.50;86.50;;;;;;5009488;28;20033;-71
2022/03/04 04:22:57;;;;;;;35.93;16.83;;;0.50;85.50;;;;;;5007496;28;20038;-71
2022/03/04 04:25:22;;;;;;;34.63;17.93;;;0.60;85.10;;;;;;5012260;28;20036;-70
2022/03/04 04:27:48;;;;;;;35.30;17.20;;;0.60;84.60;;;;;;4988556;28;20034;-70
2022/03/04 04:30:14;;;;;;;34.20;15.73;;;0.60;84.10;;;;;;5009476;28;20033;-70
2022/03/04 04:32:40;;;;;;;36.13;17.38;;;0.60;84.60;;;;;;5005066;28;20025;-70
2022/03/04 04:35:06;;;;;;;37.40;17.43;;;0.70;84.30;;;;;;5008906;28;20044;-70
2022/03/04 04:37:32;;;;;;;43.95;19.38;;;0.70;85.00;;;;;;5007888;28;20155;-70
2022/03/04 04:39:57;;;;;;;40.60;17.57;;;0.70;85.10;;;;;;5009724;28;20935;-70
2022/03/04 04:42:23;;;;;;;38.10;18.63;;;0.80;85.30;;;;;;5010000;28;20022;-70
2022/03/04 04:44:49;;;;;;;38.53;18.17;;;0.80;86.30;;;;;;5002718;28;20450;-70
2022/03/04 04:47:14;;;;;;;41.77;18.57;;;0.80;85.90;;;;;;5013698;28;20107;-70
2022/03/04 04:49:40;;;;;;;43.13;18.37;;;0.90;85.70;;;;;;5006134;28;20045;-70
2022/03/04 04:52:07;;;;;;;43.67;18.97;;;0.90;86.10;;;;;;5014584;28;20021;-70
2022/03/04 04:54:33;;;;;;;43.70;19.98;;;0.90;86.90;;;;;;5007146;28;20065;-70
2022/03/04 04:56:59;;;;;;;42.17;19.02;;;0.90;88.30;;;;;;5014004;28;20971;-71
2022/03/04 04:59:25;;;;;;;46.13;20.23;;;0.90;88.60;;;;;;5013845;28;20076;-70
2022/03/04 05:01:50;;;;;;;49.10;20.17;;;0.90;89.10;;;;;;5002182;28;20427;-70
2022/03/04 05:04:17;;;;;;;47.37;19.23;;;0.90;89.60;;;;;;5010477;28;20039;-70
2022/03/04 05:06:43;;;;;;;43.92;19.90;;;0.90;90.00;;;;;;4978844;28;20088;-70
2022/03/04 05:09:09;;;;;;;41.87;19.70;;;0.90;90.30;;;;;;5010848;28;20033;-71
2022/03/04 05:11:35;;;;;;;47.73;20.07;;;0.90;90.30;;;;;;5003817;28;20108;-71
2022/03/04 05:14:01;;;;;;;43.53;19.65;;;0.90;90.80;;;;;;5009312;28;20091;-70
2022/03/04 05:16:26;;;;;;;43.97;19.63;;;0.90;90.70;;;;;;5012021;28;20064;-70
2022/03/04 05:18:52;;;;;;;40.50;19.63;;;0.90;90.80;;;;;;4983932;28;20267;-74
2022/03/04 05:21:19;;;;;;;48.90;20.60;;;0.90;90.80;;;;;;5011395;28;20028;-75
2022/03/04 05:23:59;;;;;;;;;;;0.90;90.90;;;;;;5004374;28;20030;-74
2022/03/04 05:26:36;;;;;;;46.90;18.77;;;0.90;90.90;;;;;;4992881;28;19920;-70
2022/03/04 05:29:04;;;;;;;46.67;20.13;;;0.90;91.20;;;;;;5007211;28;20029;-70
2022/03/04 05:31:30;;;;;;;53.58;20.35;;;0.90;91.00;;;;;;4992490;28;20408;-71
2022/03/04 05:33:57;;;;;;;46.80;19.60;;;1.00;91.10;;;;;;5008098;28;20022;-70
2022/03/04 05:36:23;;;;;;;49.38;19.77;;;0.90;91.20;;;;;;5008734;28;20648;-70
2022/03/04 05:38:49;;;;;;;44.63;20.05;;;0.90;91.20;;;;;;4983375;28;20025;-70
2022/03/04 05:41:17;;;;;;;41.88;19.77;;;0.90;91.10;;;;;;4993356;28;20437;-70
2022/03/04 05:43:44;;;;;;;41.53;19.67;;;1.00;91.00;;;;;;5001861;28;20060;-70
2022/03/04 05:46:10;;;;;;;44.67;19.23;;;0.90;91.00;;;;;;5008830;28;20018;-70
2022/03/04 05:48:37;;;;;;;42.08;18.02;;;1.00;90.90;;;;;;5009212;28;20608;-70
2022/03/04 05:51:03;;;;;;;40.65;16.40;;;1.00;90.90;;;;;;5008072;28;20451;-70
2022/03/04 05:53:30;;;;;;;38.63;16.60;;;1.00;90.60;;;;;;4987892;28;21557;-70
2022/03/04 05:55:55;;;;;;;39.60;16.30;;;0.90;90.70;;;;;;5009737;28;20045;-70
2022/03/04 05:58:21;;;;;;;46.03;18.33;;;1.00;90.50;;;;;;5009556;28;20021;-70
2022/03/04 06:00:46;;;;;;;39.90;17.03;;;1.00;90.40;;;;;;5009448;28;20097;-70
2022/03/04 06:03:12;;;;;;;39.33;17.50;;;1.00;90.50;;;;;;4995823;28;20030;-71
2022/03/04 06:05:38;;;;;;;40.87;18.47;;;1.00;90.40;;;;;;5009248;28;20045;-71
2022/03/04 06:08:04;;;;;;;36.87;16.17;;;1.00;90.50;;;;;;5011322;28;20022;-71
2022/03/04 06:10:30;;;;;;;36.67;15.70;;;1.00;90.40;;;;;;5013262;28;20028;-71
2022/03/04 06:12:58;;;;;;;34.55;15.75;;;1.10;90.10;;;;;;5009731;28;20287;-71
2022/03/04 06:15:24;;;;;;;40.38;17.02;;;1.10;90.10;;;;;;4989500;28;20034;-70
2022/03/04 06:17:51;;;;;;;39.50;16.33;;;1.10;90.20;;;;;;5007878;28;20022;-71
2022/03/04 06:20:18;;;;;;;38.78;16.13;;;1.00;90.20;;;;;;4992708;28;20022;-70
2022/03/04 06:22:45;;;;;;;38.47;16.77;;;1.10;90.30;;;;;;5012164;28;20021;-70
2022/03/04 06:25:14;;;;;;;40.10;16.95;;;1.10;90.20;;;;;;4986216;28;20808;-73
2022/03/04 06:27:53;;;;;;;38.88;16.63;;;1.10;90.10;;;;;;5012669;28;20053;-70
2022/03/04 06:30:19;;;;;;;38.75;16.02;;;1.10;90.00;;;;;;4990059;28;20029;-71
2022/03/04 06:32:45;;;;;;;39.37;16.07;;;1.10;89.90;;;;;;5009596;28;20033;-71
2022/03/04 06:35:10;;;;;;;36.53;16.57;;;1.10;89.90;;;;;;5005924;28;20260;-70
2022/03/04 06:37:36;;;;;;;35.77;15.97;;;1.10;90.00;;;;;;5003353;28;20132;-71
2022/03/04 06:40:05;;;;;;;34.93;15.70;;;1.10;90.00;;;;;;5005854;28;20017;-75
2022/03/04 06:42:31;;;;;;;33.78;15.80;;;1.10;89.90;;;;;;5012403;28;20479;-71
2022/03/04 06:44:56;;;;;;;42.97;17.13;;;1.10;90.00;;;;;;5000320;28;20048;-72
2022/03/04 06:47:22;;;;;;;36.93;17.07;;;1.10;90.10;;;;;;5011773;28;20460;-71
2022/03/04 06:49:48;;;;;;;38.47;16.03;;;1.10;90.20;;;;;;5011824;28;20025;-71
2022/03/04 06:52:14;;;;;;;38.13;17.40;;;1.10;90.20;;;;;;5010387;28;20040;-70
2022/03/04 06:54:40;;;;;;;38.83;16.23;;;1.10;90.20;;;;;;5012599;28;20108;-70
2022/03/04 06:57:06;;;;;;;44.53;17.53;;;1.10;90.10;;;;;;4986189;28;20032;-70
2022/03/04 06:59:33;;;;;;;;;;;1.10;90.20;;;;;;4988671;28;20112;-71
2022/03/04 07:01:59;;;;;;;41.72;18.90;;;1.10;90.30;;;;;;5012761;28;19917;-70
2022/03/04 07:04:25;;;;;;;36.92;15.27;;;1.10;90.20;;;;;;5009752;28;20029;-71
2022/03/04 07:06:51;;;;;;;39.00;16.93;;;1.20;90.20;;;;;;5010362;28;20036;-71
2022/03/04 07:09:17;;;;;;;36.30;16.40;;;1.30;90.10;;;;;;5012737;28;20025;-71
2022/03/04 07:11:43;;;;;;;38.43;17.17;;;1.30;89.90;;;;;;5013011;28;20017;-70
2022/03/04 07:14:09;;;;;;;37.70;17.07;;;1.40;89.60;;;;;;5006453;28;20770;-71
2022/03/04 07:16:35;;;;;;;38.20;16.60;;;1.40;89.40;;;;;;5015280;28;20025;-71
2022/03/04 07:19:03;;;;;;;40.17;16.25;;;1.30;89.20;;;;;;5003953;28;20473;-71
2022/03/04 07:21:28;;;;;;;40.10;17.13;;;1.40;89.00;;;;;;5009720;28;20042;-71
2022/03/04 07:23:57;;;;;;;39.03;17.00;;;1.40;88.60;;;;;;5004948;28;20022;-71
2022/03/04 07:26:22;;;;;;;34.95;15.60;;;1.40;88.60;;;;;;5015251;28;20588;-71
2022/03/04 07:28:48;;;;;;;36.97;16.47;;;1.40;88.50;;;;;;5011757;28;20030;-71
2022/03/04 07:31:15;;;;;;;40.57;18.17;;;1.40;88.20;;;;;;5002841;28;20472;-73
2022/03/04 07:33:40;;;;;;;38.55;16.08;;;1.50;88.30;;;;;;4999332;28;20570;-70
2022/03/04 07:36:06;;;;;;;40.33;15.43;;;1.50;88.30;;;;;;5010658;28;20036;-71
2022/03/04 07:38:32;;;;;;;34.97;15.27;;;1.50;88.10;;;;;;5011430;28;20101;-71
2022/03/04 07:41:01;;;;;;;37.90;16.10;;;1.60;88.10;;;;;;5006219;28;20072;-73
2022/03/04 07:43:26;;;;;;;37.95;16.13;;;1.60;87.90;;;;;;5011718;28;20036;-71
2022/03/04 07:45:52;;;;;;;37.57;16.80;;;1.60;87.90;;;;;;5014982;28;20100;-71
2022/03/04 07:48:19;;;;;;;35.07;16.97;;;1.60;87.90;;;;;;5012673;28;20036;-71
2022/03/04 07:50:44;;;;;;;37.78;15.68;;;1.70;88.00;;;;;;4994820;28;20588;-71
2022/03/04 07:53:10;;;;;;;36.70;16.80;;;1.70;87.60;;;;;;5009648;28;20108;-77
2022/03/04 07:55:36;;;;;;;34.93;16.80;;;1.80;87.00;;;;;;5014393;28;20047;-76
2022/03/04 07:58:02;;;;;;;33.93;15.97;;;1.90;86.60;;;;;;5007340;28;20028;-75
2022/03/04 08:00:27;;;;;;;34.83;14.87;;;2.00;86.00;;;;;;5013188;28;20105;-73
2022/03/04 08:02:54;;;;;;;32.37;15.00;;;2.10;85.30;;;;;;5013186;28;20411;-71
2022/03/04 08:05:20;;;;;;;41.33;15.80;;;2.10;85.00;;;;;;5016392;28;20034;-73
2022/03/04 08:07:46;;;;;;;36.42;15.32;;;2.10;85.20;;;;;;5010478;28;20038;-71
2022/03/04 08:10:13;;;;;;;28.53;12.43;;;2.10;85.00;;;;;;5005343;28;20471;-71
2022/03/04 08:12:39;;;;;;;;;;;2.10;84.70;;;;;;5012993;28;20159;-70
2022/03/04 08:15:06;;;;;;;33.72;14.57;;;2.10;84.90;;;;;;5003525;28;19916;-71
2022/03/04 08:17:33;;;;;;;30.45;14.00;;;2.10;84.80;;;;;;5001447;28;20017;-71
2022/03/04 08:19:58;;;;;;;28.40;13.60;;;2.20;84.80;;;;;;5005655;28;20116;-72
2022/03/04 08:22:24;;;;;;;30.30;13.17;;;2.40;83.80;;;;;;5013726;28;20108;-71
2022/03/04 08:24:50;;;;;;;30.20;13.93;;;2.70;82.80;;;;;;4996815;28;20078;-71
2022/03/04 08:27:16;;;;;;;27.70;13.20;;;3.00;82.00;;;;;;5013596;28;20768;-72
2022/03/04 08:29:42;;;;;;;30.90;14.37;;;3.80;80.00;;;;;;4991509;28;20040;-72
2022/03/04 08:32:08;;;;;;;28.58;12.77;;;5.70;75.80;;;;;;5011802;28;20048;-71
2022/03/04 08:34:34;;;;;;;33.33;14.63;;;6.70;69.30;;;;;;5009706;28;20017;-71
2022/03/04 08:37:00;;;;;;;31.30;14.13;;;7.80;62.90;;;;;;5001260;28;20028;-72
2022/03/04 08:39:26;;;;;;;26.33;13.30;;;8.90;59.10;;;;;;4995696;28;20474;-72
2022/03/04 08:41:52;;;;;;;25.38;12.90;;;10.00;56.10;;;;;;5008641;28;20624;-72
2022/03/04 08:44:18;;;;;;;26.33;13.38;;;11.20;51.00;;;;;;5006510;28;20060;-71
2022/03/04 08:46:44;;;;;;;27.38;13.88;;;11.90;49.00;;;;;;5012567;28;20033;-71
2022/03/04 08:49:10;;;;;;;26.73;14.97;;;12.70;46.80;;;;;;5006291;28;20045;-72
2022/03/04 08:51:37;;;;;;;29.17;14.85;;;13.40;44.30;;;;;;5006598;28;20022;-72
2022/03/04 08:54:03;;;;;;;29.23;15.85;;;13.20;43.30;;;;;;5003181;28;20086;-71
2022/03/04 08:56:29;;;;;;;24.50;15.13;;;12.90;43.20;;;;;;4987477;28;20026;-71
2022/03/04 08:58:55;;;;;;;25.43;14.53;;;12.40;43.60;;;;;;4996862;28;21488;-71
2022/03/04 09:01:21;;;;;;;26.02;15.20;;;11.60;44.20;;;;;;5011808;28;20029;-71
2022/03/04 09:03:46;;;;;;;25.27;14.50;;;10.80;45.80;;;;;;5007770;28;20069;-71
2022/03/04 09:06:12;;;;;;;28.07;15.63;;;10.20;47.10;;;;;;5009523;28;20522;-71
2022/03/04 09:08:38;;;;;;;30.88;16.15;;;10.10;47.60;;;;;;5011890;28;20017;-71
2022/03/04 09:11:05;;;;;;;26.53;14.97;;;10.00;47.80;;;;;;4982737;28;20036;-71
2022/03/04 09:13:32;;;;;;;;;;;10.00;48.20;;;;;;4985995;28;20996;-72
2022/03/04 09:16:00;;;;;;;26.40;14.20;;;10.50;47.60;;;;;;4987675;28;20454;-71
2022/03/04 09:18:28;;;;;;;26.38;14.48;;;10.40;47.10;;;;;;5007113;28;20267;-71
2022/03/04 09:20:54;;;;;;;24.67;12.90;;;10.10;47.40;;;;;;5013000;28;20021;-71
2022/03/04 09:23:20;;;;;;;26.73;14.35;;;9.50;48.00;;;;;;5007468;28;20040;-68
2022/03/04 09:25:46;;;;;;;28.33;14.70;;;8.80;49.30;;;;;;5013296;28;20653;-68
2022/03/04 09:28:13;;;;;;;28.25;14.98;;;8.20;50.80;;;;;;4998408;28;20022;-68
2022/03/04 09:30:39;;;;;;;24.42;14.57;;;7.80;51.90;;;;;;4990403;28;20026;-68
2022/03/04 09:33:04;;;;;;;28.30;15.43;;;7.80;52.80;;;;;;5010168;28;20029;-68
2022/03/04 09:35:30;;;;;;;32.03;15.23;;;8.10;52.40;;;;;;5009219;28;20030;-68
2022/03/04 09:37:56;;;;;;;29.87;15.63;;;8.70;51.80;;;;;;5012149;28;20130;-71
2022/03/04 09:40:21;;;;;;;26.50;15.37;;;10.00;49.90;;;;;;5011449;28;20536;-71
2022/03/04 09:42:47;;;;;;;27.43;16.47;;;11.10;47.80;;;;;;5011685;28;20084;-72
2022/03/04 09:45:14;;;;;;;29.73;15.88;;;12.20;45.80;;;;;;5003577;28;20264;-72
2022/03/04 09:47:43;;;;;;;27.25;16.20;;;12.90;43.80;;;;;;5011511;28;20071;-71
2022/03/04 09:50:09;;;;;;;30.05;17.48;;;13.20;43.30;;;;;;4985557;28;20033;-71
2022/03/04 09:52:36;;;;;;;42.10;18.30;;;13.70;42.70;;;;;;4989185;28;20021;-72
2022/03/04 09:55:03;;;;;;;44.42;17.98;;;14.20;41.90;;;;;;5007319;28;20042;-72
2022/03/04 09:57:28;;;;;;;29.95;17.58;;;14.50;41.30;;;;;;5007177;28;20064;-72
2022/03/04 09:59:54;;;;;;;26.10;17.42;;;15.20;40.30;;;;;;5010474;28;20411;-71
2022/03/04 10:02:20;;;;;;;36.65;18.42;;;15.80;38.90;;;;;;5004640;28;20453;-72
2022/03/04 10:04:45;;;;;;;27.95;16.92;;;16.10;37.90;;;;;;5005626;28;20693;-72
2022/03/04 10:07:17;;;;;;;32.90;17.85;;;16.30;37.70;;;;;;5008258;28;20510;-72
2022/03/04 10:09:48;;;;;;;26.92;18.10;;;16.50;37.30;;;;;;5007529;28;20072;-72
2022/03/04 10:12:16;;;;;;;27.15;16.88;;;16.60;37.00;;;;;;5005483;28;20029;-71
2022/03/04 10:15:04;;;;;;;24.70;16.10;;;16.40;37.40;;;;;;4992226;28;20028;-74
2022/03/04 10:17:39;;;;;;;25.23;16.92;;;17.00;36.20;;;;;;4994502;28;20025;-75
2022/03/04 10:20:09;;;;;;;26.30;16.88;;;17.40;36.10;;;;;;5001455;28;20049;-72
2022/03/04 10:22:38;;;;;;;24.95;16.98;;;17.50;35.30;;;;;;5006110;28;20064;-72
2022/03/04 10:25:19;;;;;;;24.70;16.67;;;17.40;35.60;;;;;;5003189;28;20033;-72
2022/03/04 10:27:47;;;;;;;25.20;16.95;;;16.90;35.60;;;;;;5005398;28;20022;-72
2022/03/04 10:30:15;;;;;;;24.10;16.33;;;15.60;36.90;;;;;;5011603;28;20049;-71
2022/03/04 10:32:41;;;;;;;24.10;16.15;;;14.30;38.40;;;;;;5011603;28;20025;-71
2022/03/04 10:35:11;;;;;;;26.67;16.98;;;13.00;40.20;;;;;;5006804;28;20104;-71
2022/03/04 10:37:56;;;;;;;27.27;16.05;;;12.00;41.80;;;;;;5013661;28;20033;-71
2022/03/04 10:40:31;;;;;;;23.63;15.32;;;11.20;43.70;;;;;;4985260;28;20026;-71
2022/03/04 10:43:05;;;;;;;27.27;15.93;;;10.50;44.70;;;;;;5014938;28;20057;-71
2022/03/04 10:45:36;;;;;;;24.83;13.80;;;9.70;45.60;;;;;;4996160;28;20652;-71
2022/03/04 10:48:14;;;;;;;26.70;15.10;;;9.10;47.00;;;;;;5006899;28;20021;-71
2022/03/04 10:50:42;;;;;;;23.38;13.07;;;8.90;48.40;;;;;;5003520;28;20022;-71
2022/03/04 10:53:10;;;;;;;24.05;13.55;;;8.70;48.80;;;;;;5004394;28;20058;-68
2022/03/04 10:55:47;;;;;;;28.92;14.55;;;8.40;49.00;;;;;;5013835;28;20055;-68
2022/03/04 10:58:18;;;;;;;;;;;8.30;50.00;;;;;;5012928;28;20025;-68
2022/03/04 11:00:47;;;;;;;27.55;13.75;;;8.20;49.90;;;;;;5010910;28;19960;-68
2022/03/04 11:03:19;;;;;;;26.70;12.88;;;8.20;50.30;;;;;;5008064;28;20751;-68
2022/03/04 11:05:45;;;;;;;23.75;11.65;;;8.20;50.30;;;;;;5010194;28;20028;-68
2022/03/04 11:08:12;;;;;;;25.90;13.93;;;8.10;50.50;;;;;;4983167;28;20038;-68
2022/03/04 11:10:38;;;;;;;24.73;12.88;;;8.00;50.80;;;;;;5013314;28;20108;-69
2022/03/04 11:13:07;;;;;;;29.30;13.27;;;7.90;51.20;;;;;;5009826;28;20028;-69
2022/03/04 11:15:35;;;;;;;24.23;12.90;;;7.80;51.50;;;;;;5013503;28;20452;-69
2022/03/04 11:18:06;;;;;;;24.75;12.75;;;7.60;51.70;;;;;;5011040;28;20057;-71
2022/03/04 11:20:32;;;;;;;22.20;11.63;;;7.40;51.80;;;;;;5014902;28;20394;-71
2022/03/04 11:22:58;;;;;;;23.92;12.25;;;7.20;52.40;;;;;;5013639;28;20474;-72
2022/03/04 11:25:24;;;;;;;24.75;12.52;;;7.00;52.60;;;;;;4989737;28;20454;-71
2022/03/04 11:27:53;;;;;;;25.25;11.95;;;6.90;53.10;;;;;;5014802;28;20026;-71
2022/03/04 11:30:37;;;;;;;25.83;11.80;;;6.80;53.60;;;;;;5007372;28;20481;-70
2022/03/04 11:33:12;;;;;;;23.45;10.85;;;6.80;54.00;;;;;;5006639;28;20028;-70
2022/03/04 11:36:02;;;;;;;21.38;10.80;;;6.80;53.60;;;;;;5012239;28;20026;-70
2022/03/04 11:38:46;;;;;;;20.33;10.52;;;6.80;53.00;;;;;;5008058;28;20029;-70
2022/03/04 11:41:26;;;;;;;23.98;11.48;;;7.00;53.20;;;;;;5006830;28;20127;-70
2022/03/04 11:43:53;;;;;;;22.23;11.27;;;7.00;53.30;;;;;;5008617;28;20061;-70
2022/03/04 11:46:20;;;;;;;20.30;10.68;;;7.20;53.30;;;;;;5004909;28;20081;-69
2022/03/04 11:48:57;;;;;;;22.20;10.50;;;7.40;52.70;;;;;;5010590;28;20045;-68
2022/03/04 11:51:23;;;;;;;19.17;10.07;;;7.40;52.50;;;;;;5005914;28;20624;-71
2022/03/04 11:54:24;;;;;;;19.63;10.60;;;7.60;51.60;;;;;;4987735;28;20488;-73
2022/03/04 11:56:54;;;;;;;26.73;11.32;;;7.70;51.60;;;;;;5004466;28;20064;-72
2022/03/04 11:59:22;;;;;;;19.70;10.05;;;7.60;51.50;;;;;;5007521;28;20022;-71
2022/03/04 12:01:48;;;;;;;20.73;10.35;;;7.50;51.50;;;;;;5010490;28;20026;-71
2022/03/04 12:04:16;;;;;;;21.75;11.13;;;7.50;52.10;;;;;;5008452;28;20067;-70
2022/03/04 12:06:43;;;;;;;19.60;10.52;;;7.40;52.00;;;;;;4990702;28;20422;-68
2022/03/04 12:09:30;;;;;;;20.17;10.30;;;7.70;51.40;;;;;;5007917;28;20511;-68
2022/03/04 12:12:21;;;;;;;20.95;10.38;;;7.90;51.60;;;;;;5010542;28;20218;-68
2022/03/04 12:14:52;;;;;;;20.23;10.27;;;8.00;54.00;;;;;;5003677;28;20021;-70
2022/03/04 12:17:18;;;;;;;18.33;10.80;;;8.00;50.60;;;;;;5007690;28;20104;-71
2022/03/04 12:19:45;;;;;;;19.48;11.35;;;7.70;51.00;;;;;;5006497;28;20009;-71
2022/03/04 12:22:15;;;;;;;21.38;10.88;;;7.80;51.20;;;;;;4984155;28;20045;-69
2022/03/04 12:24:55;;;;;;;20.90;10.40;;;8.00;51.20;;;;;;5008448;28;20022;-69
2022/03/04 12:27:45;;;;;;;20.45;10.80;;;8.30;50.70;;;;;;5007356;28;20025;-69
2022/03/04 12:30:20;;;;;;;21.83;10.95;;;8.50;49.70;;;;;;5005239;28;20128;-70
2022/03/04 12:32:56;;;;;;;19.75;10.80;;;8.50;49.30;;;;;;5004369;28;20025;-69
2022/03/04 12:35:22;;;;;;;19.58;9.73;;;8.30;49.20;;;;;;5006192;28;20029;-70
2022/03/04 12:37:48;;;;;;;17.63;9.75;;;8.10;50.00;;;;;;5008470;28;20033;-70
2022/03/04 12:40:16;;;;;;;17.93;9.40;;;7.70;50.30;;;;;;5006466;28;20051;-69
2022/03/04 12:42:52;;;;;;;16.20;8.57;;;7.60;50.30;;;;;;5004528;28;20034;-69